Pomaria, South Carolina
Current Conditions -  °F | °C
As of 9:35 AM on Friday 28 Nov 2014 (Local Time) from KEOE Reporting Station
Clear Clear  
Wind Chill: 29°   Ceiling: Unl
Heat Index: 36°   Visibility: 10mi
Dew Point: 21°   Wind: 8mph
Humidity: 56%   Direction: 30°NNE
Pressure: 30.43"   Gusts: NA
Location:  34.27°N, 81.42°W
Report Text: KEOE 281435Z AUTO 03007KT 10SM CLR 02/M06 A3043 RMK AO2 P0006
Loading
Personal Weather Stations






























Interactive Weather Map New forecast layout! Learn more

10-Day Weather Forecast

Advertisements
Track Severe Weather on mobile